Time;durP1;ratioP1;P1;durP2;ratioP2;P2;SDS_P1;SDS_P2;PMS_P1;PMS_P2;Temp;Humidity;BMP_temperature;BMP_pressure;BME280_temperature;BME280_humidity;BME280_pressure;Samples;Min_cycle;Max_cycle;Signal;HPM_P1;HPM_P2
2024/01/07 00:00:28;;;;;;;3.27;2.97;;;;;;;4.45;100.00;99736.56;5028251;28;20260;-62
2024/01/07 00:02:53;;;;;;;3.93;3.20;;;;;;;4.29;100.00;99729.47;5052223;28;20181;-61
2024/01/07 00:05:18;;;;;;;4.97;3.30;;;;;;;4.36;100.00;99725.78;5031685;28;20263;-61
2024/01/07 00:07:43;;;;;;;3.70;2.87;;;;;;;4.16;100.00;99731.56;5032085;28;20181;-62
2024/01/07 00:10:09;;;;;;;3.57;2.97;;;;;;;4.23;100.00;99731.38;5023588;28;20174;-61
2024/01/07 00:12:35;;;;;;;3.50;3.07;;;;;;;4.15;100.00;99737.56;5045393;28;20270;-61
2024/01/07 00:15:00;;;;;;;3.67;3.23;;;;;;;4.07;100.00;99736.16;5031595;28;20185;-62
2024/01/07 00:17:26;;;;;;;4.03;2.77;;;;;;;4.15;100.00;99735.00;5032065;28;20209;-62
2024/01/07 00:19:51;;;;;;;3.93;3.30;;;;;;;4.28;100.00;99732.03;5031680;28;20189;-61
2024/01/07 00:22:17;;;;;;;4.10;3.70;;;;;;;4.29;100.00;99741.34;5033330;28;20227;-61
2024/01/07 00:24:42;;;;;;;3.80;3.37;;;;;;;4.18;100.00;99734.06;5031501;28;20282;-64
2024/01/07 00:27:08;;;;;;;4.70;3.83;;;;;;;4.12;100.00;99737.66;5031979;28;20222;-62
2024/01/07 00:29:35;;;;;;;5.40;4.00;;;;;;;3.94;100.00;99738.28;5031478;28;20184;-61
2024/01/07 00:32:00;;;;;;;4.50;3.50;;;;;;;3.98;100.00;99740.69;5023646;28;20229;-62
2024/01/07 00:34:25;;;;;;;4.43;4.03;;;;;;;3.69;100.00;99741.63;5031547;28;20187;-62
2024/01/07 00:36:51;;;;;;;4.67;3.77;;;;;;;3.75;100.00;99740.59;5030561;28;20181;-62
2024/01/07 00:39:16;;;;;;;6.43;4.27;;;;;;;3.68;100.00;99745.03;5031633;28;20553;-61
2024/01/07 00:41:41;;;;;;;5.20;4.17;;;;;;;3.76;100.00;99747.31;5047344;28;20288;-62
2024/01/07 00:44:06;;;;;;;5.50;4.50;;;;;;;3.63;100.00;99749.44;5037145;28;20181;-61
2024/01/07 00:46:33;;;;;;;6.97;4.60;;;;;;;3.57;100.00;99745.38;5031107;28;20240;-62
2024/01/07 00:48:58;;;;;;;4.63;4.03;;;;;;;3.69;100.00;99751.78;5030925;28;20278;-63
2024/01/07 00:51:23;;;;;;;5.13;4.57;;;;;;;3.58;100.00;99756.38;5031959;28;20222;-64
2024/01/07 00:53:49;;;;;;;6.30;5.13;;;;;;;3.47;100.00;99757.53;5043679;28;20219;-62
2024/01/07 00:56:14;;;;;;;5.63;4.90;;;;;;;3.38;100.00;99760.38;5030827;28;20186;-62
2024/01/07 00:58:39;;;;;;;6.10;5.23;;;;;;;3.35;100.00;99768.06;5031190;28;20174;-62
2024/01/07 01:01:06;;;;;;;5.90;5.00;;;;;;;3.33;100.00;99762.22;5037608;28;20230;-62
2024/01/07 01:03:31;;;;;;;6.77;5.33;;;;;;;3.36;100.00;99767.19;5045583;28;20170;-62
2024/01/07 01:05:56;;;;;;;6.00;5.20;;;;;;;3.45;100.00;99766.94;5031069;28;20263;-62
2024/01/07 01:08:23;;;;;;;6.50;5.13;;;;;;;3.62;100.00;99766.44;5030987;28;20181;-62
2024/01/07 01:10:48;;;;;;;5.10;4.60;;;;;;;3.50;100.00;99774.44;5028216;28;20309;-62
2024/01/07 01:13:13;;;;;;;5.20;4.70;;;;;;;3.55;100.00;99775.13;5050648;28;20604;-62
2024/01/07 01:15:39;;;;;;;6.40;5.07;;;;;;;3.56;100.00;99779.34;5031473;28;20186;-62
2024/01/07 01:18:04;;;;;;;5.93;5.20;;;;;;;3.68;100.00;99783.19;5031348;28;20706;-62
2024/01/07 01:20:29;;;;;;;5.10;4.53;;;;;;;3.57;100.00;99777.59;5027772;28;20232;-62
2024/01/07 01:22:55;;;;;;;5.37;4.80;;;;;;;3.53;100.00;99780.22;5060541;28;20228;-62
2024/01/07 01:25:20;;;;;;;6.87;5.13;;;;;;;3.60;100.00;99788.53;5031250;28;20201;-62
2024/01/07 01:27:45;;;;;;;5.83;5.00;;;;;;;3.52;100.00;99782.81;5031031;28;20644;-62
2024/01/07 01:30:11;;;;;;;5.40;4.67;;;;;;;3.61;100.00;99786.78;5054783;28;20300;-62
2024/01/07 01:32:38;;;;;;;6.07;4.87;;;;;;;3.50;100.00;99789.69;5044547;28;20185;-62
2024/01/07 01:35:05;;;;;;;6.40;5.43;;;;;;;3.50;100.00;99790.50;5030509;28;20190;-62
2024/01/07 01:37:32;;;;;;;5.10;4.60;;;;;;;3.47;100.00;99792.31;5029627;28;20491;-61
2024/01/07 01:39:58;;;;;;;6.23;5.20;;;;;;;3.53;100.00;99792.94;5062718;28;20641;-62
2024/01/07 01:42:23;;;;;;;6.57;5.20;;;;;;;3.44;100.00;99789.88;5051982;28;20288;-61
2024/01/07 01:44:48;;;;;;;5.73;5.00;;;;;;;3.58;100.00;99794.53;5028741;28;20515;-62
2024/01/07 01:47:14;;;;;;;5.63;4.67;;;;;;;3.57;100.00;99796.22;5029718;28;20240;-61
2024/01/07 01:49:40;;;;;;;5.97;4.90;;;;;;;3.62;100.00;99786.78;5032576;28;20214;-62
2024/01/07 01:52:05;;;;;;;6.40;5.03;;;;;;;3.61;100.00;99789.34;5054147;28;20286;-62
2024/01/07 01:54:30;;;;;;;6.10;5.40;;;;;;;3.36;100.00;99792.63;5033930;28;20182;-61
2024/01/07 01:56:56;;;;;;;6.30;5.37;;;;;;;3.53;100.00;99792.13;5034107;28;20251;-65
2024/01/07 01:59:22;;;;;;;6.43;5.30;;;;;;;3.45;100.00;99792.38;5066106;28;20211;-62
2024/01/07 02:01:47;;;;;;;5.70;5.10;;;;;;;3.55;100.00;99790.38;5040013;28;20740;-63
2024/01/07 02:04:14;;;;;;;6.07;5.23;;;;;;;3.54;100.00;99791.25;5037964;28;20178;-63
2024/01/07 02:06:39;;;;;;;5.40;4.80;;;;;;;3.51;100.00;99794.72;5033151;28;20213;-62
2024/01/07 02:09:04;;;;;;;5.50;4.00;;;;;;;3.32;100.00;99793.59;5033877;28;20190;-61
2024/01/07 02:11:30;;;;;;;5.20;4.70;;;;;;;3.33;100.00;99800.34;5046779;28;20223;-62
2024/01/07 02:13:55;;;;;;;6.00;5.00;;;;;;;3.38;100.00;99789.16;5042452;28;20248;-62
2024/01/07 02:16:20;;;;;;;5.73;4.87;;;;;;;3.52;100.00;99795.53;5032644;28;20185;-62
2024/01/07 02:18:46;;;;;;;5.73;4.90;;;;;;;3.55;100.00;99798.00;5032128;28;20233;-62
2024/01/07 02:21:13;;;;;;;5.87;4.87;;;;;;;3.60;100.00;99798.69;5035261;28;20766;-62
2024/01/07 02:23:38;;;;;;;5.73;5.13;;;;;;;3.57;100.00;99796.22;5038859;28;20556;-61
2024/01/07 02:26:04;;;;;;;5.53;5.00;;;;;;;3.48;100.00;99796.53;5065794;28;20197;-61
2024/01/07 02:28:30;;;;;;;6.73;5.00;;;;;;;3.48;100.00;99793.97;5032375;28;20228;-62
2024/01/07 02:30:55;;;;;;;5.27;4.70;;;;;;;3.62;100.00;99796.09;5032483;28;20758;-62
2024/01/07 02:33:21;;;;;;;5.67;5.17;;;;;;;3.61;100.00;99797.81;5040680;28;20267;-62
2024/01/07 02:35:46;;;;;;;5.23;4.73;;;;;;;3.50;100.00;99803.22;5033772;28;20269;-61
2024/01/07 02:38:11;;;;;;;5.00;4.47;;;;;;;3.55;100.00;99800.56;5033548;28;20201;-62
2024/01/07 02:40:37;;;;;;;6.10;5.50;;;;;;;3.47;100.00;99799.94;5032637;28;20289;-61
2024/01/07 02:43:02;;;;;;;5.70;5.20;;;;;;;3.56;100.00;99802.22;5043397;28;20320;-63
2024/01/07 02:45:27;;;;;;;5.53;4.50;;;;;;;3.70;100.00;99802.63;5033794;28;20737;-62
2024/01/07 02:47:53;;;;;;;5.43;4.83;;;;;;;3.74;100.00;99805.91;5033270;28;20186;-62
2024/01/07 02:50:18;;;;;;;5.50;4.80;;;;;;;3.69;100.00;99802.66;5053205;28;20194;-62
2024/01/07 02:52:43;;;;;;;6.93;5.77;;;;;;;3.71;100.00;99799.19;5043795;28;20542;-62
2024/01/07 02:55:09;;;;;;;4.73;4.13;;;;;;;3.67;100.00;99801.88;5032071;28;20657;-61
2024/01/07 02:57:34;;;;;;;5.33;4.83;;;;;;;3.66;100.00;99812.91;5033250;28;20182;-61
2024/01/07 03:00:00;;;;;;;6.00;4.67;;;;;;;3.78;100.00;99802.38;5033506;28;20181;-62
2024/01/07 03:02:25;;;;;;;5.70;4.53;;;;;;;3.79;100.00;99806.59;5054230;28;20656;-62
2024/01/07 03:04:50;;;;;;;7.17;4.70;;;;;;;3.80;100.00;99807.44;5032807;28;20178;-61
2024/01/07 03:07:15;;;;;;;5.50;4.87;;;;;;;3.69;100.00;99812.84;5033386;28;20184;-61
2024/01/07 03:09:41;;;;;;;5.97;4.60;;;;;;;3.68;100.00;99814.56;5033056;28;20208;-62
2024/01/07 03:12:06;;;;;;;5.20;4.30;;;;;;;3.76;100.00;99813.47;5054242;28;20695;-61
2024/01/07 03:14:31;;;;;;;5.13;4.63;;;;;;;3.80;100.00;99809.97;5033028;28;20265;-62
2024/01/07 03:16:57;;;;;;;5.20;4.50;;;;;;;3.78;100.00;99812.53;5032571;28;20190;-61
2024/01/07 03:19:22;;;;;;;5.47;4.60;;;;;;;3.80;100.00;99817.59;5032805;28;20524;-62
2024/01/07 03:21:50;;;;;;;4.93;4.43;;;;;;;3.77;100.00;99815.16;5037720;28;20337;-62
2024/01/07 03:24:16;;;;;;;5.63;5.07;;;;;;;3.80;100.00;99809.97;5037034;28;20178;-62
2024/01/07 03:26:41;;;;;;;6.03;4.37;;;;;;;3.76;100.00;99818.56;5032465;28;20202;-62
2024/01/07 03:29:06;;;;;;;4.53;4.13;;;;;;;3.76;100.00;99818.56;5031293;28;20190;-62
2024/01/07 03:31:32;;;;;;;5.20;4.50;;;;;;;3.79;100.00;99815.94;5045834;28;20229;-61
2024/01/07 03:33:57;;;;;;;7.27;4.60;;;;;;;3.69;100.00;99813.66;5040504;28;20182;-61
2024/01/07 03:36:22;;;;;;;8.07;4.73;;;;;;;3.50;100.00;99820.22;5031323;28;20271;-63
2024/01/07 03:38:48;;;;;;;5.03;4.53;;;;;;;3.23;100.00;99820.13;5032173;28;20209;-62
2024/01/07 03:41:18;;;;;;;4.93;4.20;;;;;;;3.32;100.00;99819.84;5040887;28;20228;-61
2024/01/07 03:43:43;;;;;;;5.90;4.80;;;;;;;3.37;100.00;99817.19;5036823;28;20178;-62
2024/01/07 03:46:09;;;;;;;4.10;3.47;;;;;;;3.21;100.00;99814.25;5031736;28;20288;-62
2024/01/07 03:48:34;;;;;;;4.87;4.33;;;;;;;3.27;100.00;99823.41;5033094;28;20185;-61
2024/01/07 03:50:59;;;;;;;5.57;4.80;;;;;;;3.27;100.00;99825.97;5026365;28;20212;-61
2024/01/07 03:53:24;;;;;;;5.20;4.70;;;;;;;3.31;100.00;99825.84;5038462;28;20190;-61
2024/01/07 03:55:50;;;;;;;5.00;4.50;;;;;;;3.27;100.00;99831.03;5029337;28;20188;-61
2024/01/07 03:58:15;;;;;;;4.97;4.47;;;;;;;3.30;100.00;99825.84;5030679;28;20178;-61
2024/01/07 04:00:40;;;;;;;5.90;4.93;;;;;;;3.32;100.00;99835.09;5031991;28;20290;-62
2024/01/07 04:03:05;;;;;;;5.50;4.70;;;;;;;3.16;100.00;99821.19;5041134;28;20287;-61
2024/01/07 04:05:33;;;;;;;5.97;4.73;;;;;;;3.09;100.00;99828.16;5031956;28;20656;-62
2024/01/07 04:07:58;;;;;;;5.47;4.97;;;;;;;3.13;100.00;99831.44;5032217;28;20189;-61
2024/01/07 04:10:23;;;;;;;5.43;4.63;;;;;;;3.28;100.00;99832.72;5026886;28;20221;-61
2024/01/07 04:12:48;;;;;;;6.03;4.80;;;;;;;3.36;100.00;99835.84;5057309;28;20186;-62
2024/01/07 04:15:14;;;;;;;5.67;5.13;;;;;;;3.37;100.00;99838.38;5031348;28;20650;-62
2024/01/07 04:17:39;;;;;;;5.50;4.73;;;;;;;3.33;100.00;99833.41;5031777;28;20185;-62
2024/01/07 04:20:05;;;;;;;5.17;4.57;;;;;;;3.43;100.00;99836.53;5022493;28;20186;-62
2024/01/07 04:22:31;;;;;;;5.07;4.03;;;;;;;3.41;100.00;99849.25;5061959;28;20514;-62
2024/01/07 04:24:56;;;;;;;5.17;4.20;;;;;;;3.50;100.00;99846.47;5031364;28;20193;-62
2024/01/07 04:27:21;;;;;;;4.83;4.23;;;;;;;3.58;100.00;99843.69;5031764;28;20195;-62
2024/01/07 04:29:47;;;;;;;5.57;4.67;;;;;;;3.51;100.00;99850.69;5031562;28;20200;-61
2024/01/07 04:32:12;;;;;;;5.23;4.73;;;;;;;3.47;100.00;99855.88;5033025;28;20345;-62
2024/01/07 04:34:37;;;;;;;4.27;3.87;;;;;;;3.26;100.00;99864.97;5031456;28;20186;-62
2024/01/07 04:37:03;;;;;;;5.47;4.37;;;;;;;3.09;100.00;99860.34;5031364;28;20182;-61
2024/01/07 04:39:28;;;;;;;4.17;3.77;;;;;;;3.19;100.00;99867.69;5031533;28;20277;-62
2024/01/07 04:41:53;;;;;;;4.90;4.40;;;;;;;3.32;100.00;99870.69;5049770;28;20235;-62
2024/01/07 04:44:19;;;;;;;5.03;4.37;;;;;;;3.41;100.00;99869.59;5033672;28;20189;-62
2024/01/07 04:46:44;;;;;;;5.40;4.50;;;;;;;3.48;100.00;99868.56;5029493;28;20707;-62
2024/01/07 04:49:09;;;;;;;4.80;4.30;;;;;;;3.53;100.00;99866.69;5034403;28;20261;-62
2024/01/07 04:51:36;;;;;;;5.17;4.13;;;;;;;3.27;100.00;99881.88;5034040;28;20232;-62
2024/01/07 04:54:01;;;;;;;4.50;3.97;;;;;;;3.37;100.00;99871.44;5038035;28;20203;-61
2024/01/07 04:56:27;;;;;;;4.43;4.10;;;;;;;3.44;100.00;99881.41;5031324;28;20644;-61
2024/01/07 04:58:52;;;;;;;4.77;4.00;;;;;;;3.34;100.00;99879.13;5030811;28;20170;-61
2024/01/07 05:01:17;;;;;;;4.33;3.80;;;;;;;3.52;100.00;99875.22;5040794;28;20307;-62
2024/01/07 05:03:42;;;;;;;4.37;3.97;;;;;;;3.57;100.00;99876.81;5035789;28;20565;-63
2024/01/07 05:06:09;;;;;;;4.13;3.63;;;;;;;3.69;100.00;99884.06;5031244;28;20268;-62
2024/01/07 05:08:37;;;;;;;4.57;3.70;;;;;;;3.72;100.00;99887.38;5031098;28;20532;-62
2024/01/07 05:11:03;;;;;;;4.67;4.10;;;;;;;3.62;100.00;99885.13;5036884;28;20233;-61
2024/01/07 05:13:28;;;;;;;5.33;3.90;;;;;;;3.63;100.00;99886.78;5046207;28;20261;-62
2024/01/07 05:15:53;;;;;;;4.73;4.30;;;;;;;3.44;100.00;99891.59;5030986;28;20601;-62
2024/01/07 05:18:23;;;;;;;4.73;4.00;;;;;;;3.39;100.00;99889.16;5029758;28;20228;-61
2024/01/07 05:20:49;;;;;;;5.57;4.13;;;;;;;3.32;100.00;99901.22;5028975;28;20570;-62
2024/01/07 05:23:14;;;;;;;5.57;4.40;;;;;;;3.34;100.00;99903.72;5041482;28;20178;-62
2024/01/07 05:25:40;;;;;;;5.33;4.17;;;;;;;3.35;100.00;99898.59;5066932;28;20204;-61
2024/01/07 05:28:06;;;;;;;5.53;4.67;;;;;;;3.31;100.00;99903.78;5066716;28;20194;-61
2024/01/07 05:30:31;;;;;;;4.33;3.77;;;;;;;3.36;100.00;99909.59;5029696;28;20250;-62
2024/01/07 05:32:56;;;;;;;6.50;4.80;;;;;;;3.40;100.00;99913.72;5058646;28;20960;-62
2024/01/07 05:35:22;;;;;;;6.17;4.90;;;;;;;3.26;100.00;99918.34;5033595;28;20273;-61
2024/01/07 05:37:47;;;;;;;4.47;4.07;;;;;;;3.53;100.00;99909.13;5034717;28;20201;-61
2024/01/07 05:40:12;;;;;;;5.17;4.03;;;;;;;3.34;100.00;99911.34;5027284;28;20548;-61
2024/01/07 05:42:37;;;;;;;4.50;3.77;;;;;;;3.38;100.00;99921.38;5047456;28;20317;-62
2024/01/07 05:45:03;;;;;;;5.03;4.50;;;;;;;3.57;100.00;99927.66;5032752;28;20245;-62
2024/01/07 05:47:29;;;;;;;4.50;4.07;;;;;;;3.56;100.00;99924.31;5033306;28;20174;-62
2024/01/07 05:49:55;;;;;;;5.90;4.70;;;;;;;3.64;100.00;99924.09;5039566;28;20595;-61
2024/01/07 05:52:20;;;;;;;4.77;3.50;;;;;;;3.33;100.00;99937.66;5055666;28;20220;-61
2024/01/07 05:54:45;;;;;;;4.77;4.00;;;;;;;3.36;100.00;99943.50;5034280;28;20174;-61
2024/01/07 05:57:12;;;;;;;4.70;4.20;;;;;;;3.41;100.00;99932.34;5034519;28;20540;-61
2024/01/07 05:59:37;;;;;;;4.60;3.70;;;;;;;3.42;100.00;99941.66;5034268;28;20270;-61
2024/01/07 06:02:03;;;;;;;4.47;3.70;;;;;;;3.48;100.00;99938.94;5041075;28;20244;-62
2024/01/07 06:04:28;;;;;;;4.67;3.83;;;;;;;3.40;100.00;99949.31;5034222;28;20189;-61
2024/01/07 06:06:53;;;;;;;5.57;3.43;;;;;;;3.49;100.00;99948.25;5032439;28;20679;-62
2024/01/07 06:09:19;;;;;;;3.63;3.33;;;;;;;3.58;100.00;99942.88;5034234;28;20183;-61
2024/01/07 06:11:44;;;;;;;3.77;3.20;;;;;;;3.56;100.00;99952.28;5050738;28;20251;-61
2024/01/07 06:14:09;;;;;;;4.37;3.17;;;;;;;3.48;100.00;99956.75;5035247;28;20174;-61
2024/01/07 06:16:34;;;;;;;4.13;3.17;;;;;;;3.45;100.00;99951.72;5034203;28;20182;-62
2024/01/07 06:19:00;;;;;;;4.30;3.30;;;;;;;3.36;100.00;99956.19;5032577;28;20634;-61
2024/01/07 06:21:25;;;;;;;3.90;3.50;;;;;;;3.43;100.00;99959.41;5036372;28;20316;-61
2024/01/07 06:23:50;;;;;;;4.27;3.10;;;;;;;3.48;100.00;99959.28;5043684;28;20240;-61
2024/01/07 06:26:16;;;;;;;5.70;3.73;;;;;;;3.70;100.00;99959.53;5033646;28;20277;-62
2024/01/07 06:28:41;;;;;;;4.50;3.40;;;;;;;3.51;100.00;99961.72;5065666;28;20176;-61
2024/01/07 06:31:06;;;;;;;4.00;3.50;;;;;;;3.46;100.00;99971.19;5057697;28;20577;-61
2024/01/07 06:33:32;;;;;;;5.07;3.80;;;;;;;3.52;100.00;99969.34;5032609;28;20735;-61
2024/01/07 06:35:57;;;;;;;5.83;4.67;;;;;;;3.37;100.00;99974.81;5033163;28;20200;-63
2024/01/07 06:38:23;;;;;;;5.67;4.10;;;;;;;3.45;100.00;99980.53;5033780;28;20240;-61
2024/01/07 06:40:49;;;;;;;5.57;4.43;;;;;;;3.36;100.00;99989.25;5034795;28;20594;-62
2024/01/07 06:43:14;;;;;;;6.53;5.37;;;;;;;3.36;100.00;99991.81;5052947;28;20181;-61
2024/01/07 06:45:39;;;;;;;8.23;5.07;;;;;;;3.22;100.00;99999.78;5032545;28;20627;-62
2024/01/07 06:48:05;;;;;;;5.77;5.17;;;;;;;3.17;100.00;99996.50;5033322;28;20190;-61
2024/01/07 06:50:30;;;;;;;7.30;4.70;;;;;;;3.18;100.00;100002.44;5033738;28;20216;-61
2024/01/07 06:52:55;;;;;;;5.20;4.70;;;;;;;3.12;100.00;100005.16;5056889;28;20182;-61
2024/01/07 06:55:22;;;;;;;7.77;6.00;;;;;;;3.22;100.00;100004.03;5033409;28;20183;-60
2024/01/07 06:57:47;;;;;;;9.37;5.57;;;;;;;3.16;100.00;100012.66;5033248;28;20189;-60
2024/01/07 07:00:13;;;;;;;8.47;5.50;;;;;;;3.02;100.00;100015.53;5025631;28;20639;-61
2024/01/07 07:02:39;;;;;;;7.50;6.10;;;;;;;2.95;100.00;100021.63;5061090;28;20215;-61
2024/01/07 07:05:04;;;;;;;9.20;6.47;;;;;;;2.90;100.00;100024.28;5032920;28;20796;-62
2024/01/07 07:07:29;;;;;;;9.00;7.20;;;;;;;2.87;100.00;100031.16;5033089;28;20191;-62
2024/01/07 07:09:55;;;;;;;10.57;8.00;;;;;;;2.96;100.00;100036.00;5032942;28;20645;-62
2024/01/07 07:12:20;;;;;;;9.80;7.00;;;;;;;2.87;100.00;100037.06;5053792;28;20227;-61
2024/01/07 07:14:45;;;;;;;10.20;6.37;;;;;;;2.80;100.00;100034.72;5032500;28;20178;-61
2024/01/07 07:17:10;;;;;;;9.33;7.00;;;;;;;2.78;100.00;100044.91;5032703;28;20254;-61
2024/01/07 07:19:36;;;;;;;9.37;6.67;;;;;;;2.77;100.00;100047.47;5033050;28;20210;-61
2024/01/07 07:22:01;;;;;;;10.67;7.53;;;;;;;2.76;100.00;100051.72;5053578;28;20232;-61
2024/01/07 07:24:26;;;;;;;9.97;7.23;;;;;;;2.76;100.00;100051.72;5032909;28;20232;-61
2024/01/07 07:26:52;;;;;;;8.70;6.97;;;;;;;2.77;100.00;100053.41;5032085;28;21024;-61
2024/01/07 07:29:17;;;;;;;11.07;6.77;;;;;;;2.76;100.00;100056.81;5032544;28;20189;-61
2024/01/07 07:31:42;;;;;;;11.33;8.03;;;;;;;2.70;100.00;100062.03;5037736;28;20226;-61
2024/01/07 07:34:09;;;;;;;9.57;7.60;;;;;;;2.79;100.00;100068.59;5037734;28;20229;-61
2024/01/07 07:36:35;;;;;;;11.87;7.53;;;;;;;2.79;100.00;100077.06;5032168;28;20181;-62
2024/01/07 07:39:00;;;;;;;10.83;8.57;;;;;;;2.76;100.00;100076.31;5032044;28;20192;-62
2024/01/07 07:41:25;;;;;;;9.93;7.60;;;;;;;2.77;100.00;100080.47;5034647;28;20274;-61
2024/01/07 07:43:50;;;;;;;10.67;7.57;;;;;;;2.84;100.00;100082.88;5041700;28;20174;-62
2024/01/07 07:46:16;;;;;;;8.33;6.97;;;;;;;2.84;100.00;100085.41;5030034;28;20717;-61
2024/01/07 07:48:41;;;;;;;7.93;5.87;;;;;;;2.71;100.00;100095.00;5035214;28;20276;-62
2024/01/07 07:51:07;;;;;;;7.60;5.40;;;;;;;2.63;100.00;100091.81;5031899;28;20221;-61
2024/01/07 07:53:32;;;;;;;6.27;5.30;;;;;;;2.58;100.00;100086.81;5045152;28;20223;-62
2024/01/07 07:55:58;;;;;;;6.53;5.10;;;;;;;2.64;100.00;100096.03;5030866;28;20189;-61
2024/01/07 07:58:23;;;;;;;6.67;5.43;;;;;;;2.67;100.00;100093.41;5030900;28;20277;-61
2024/01/07 08:00:48;;;;;;;5.80;4.63;;;;;;;2.64;100.00;100095.19;5032696;28;20229;-62
2024/01/07 08:03:13;;;;;;;5.60;5.00;;;;;;;2.67;100.00;100102.75;5050159;28;20189;-61
2024/01/07 08:05:41;;;;;;;5.83;5.23;;;;;;;2.68;100.00;100099.31;5031930;28;20236;-62
2024/01/07 08:08:06;;;;;;;6.40;4.83;;;;;;;2.67;100.00;100103.56;5032175;28;20170;-61
2024/01/07 08:10:32;;;;;;;5.60;5.00;;;;;;;2.79;100.00;100114.31;5056644;28;20827;-62
2024/01/07 08:12:58;;;;;;;5.87;4.53;;;;;;;2.79;100.00;100116.88;5042068;28;20613;-61
2024/01/07 08:15:23;;;;;;;6.50;5.07;;;;;;;2.86;100.00;100120.94;5031820;28;20193;-62
2024/01/07 08:17:48;;;;;;;5.63;4.20;;;;;;;2.88;100.00;100120.03;5030592;28;20189;-61
2024/01/07 08:20:14;;;;;;;5.37;4.70;;;;;;;2.91;100.00;100124.22;5024568;28;20234;-62
2024/01/07 08:22:39;;;;;;;5.63;5.03;;;;;;;2.86;100.00;100123.47;5060068;28;20189;-61
2024/01/07 08:25:04;;;;;;;7.53;5.00;;;;;;;2.87;100.00;100120.91;5031259;28;20194;-61
2024/01/07 08:27:32;;;;;;;6.43;4.50;;;;;;;2.95;100.00;100127.53;5031552;28;20182;-62
2024/01/07 08:29:57;;;;;;;7.57;4.97;;;;;;;2.91;100.00;100139.47;5031626;28;20244;-61
2024/01/07 08:32:23;;;;;;;5.70;4.63;;;;;;;2.88;100.00;100137.00;5016810;28;20698;-61
2024/01/07 08:34:49;;;;;;;6.20;5.03;;;;;;;2.94;100.00;100138.56;5031273;28;20349;-62
2024/01/07 08:37:14;;;;;;;6.07;4.60;;;;;;;2.96;100.00;100141.91;5030275;28;20265;-61
2024/01/07 08:39:39;;;;;;;6.67;5.53;;;;;;;3.05;100.00;100141.69;5031374;28;20208;-61
2024/01/07 08:42:04;;;;;;;7.73;5.70;;;;;;;2.94;100.00;100143.63;5052750;28;20217;-62
2024/01/07 08:44:30;;;;;;;7.87;5.90;;;;;;;2.96;100.00;100145.28;5030141;28;20545;-61
2024/01/07 08:46:55;;;;;;;6.27;5.63;;;;;;;2.88;100.00;100150.53;5031123;28;20212;-62
2024/01/07 08:49:21;;;;;;;7.60;6.17;;;;;;;2.92;100.00;100141.13;5035645;28;20659;-61
2024/01/07 08:51:46;;;;;;;7.67;5.40;;;;;;;2.86;100.00;100149.72;5048066;28;20228;-61
2024/01/07 08:54:11;;;;;;;8.23;5.97;;;;;;;2.93;100.00;100150.44;5035625;28;20185;-61
2024/01/07 08:56:37;;;;;;;7.43;5.93;;;;;;;2.87;100.00;100161.56;5031157;28;20197;-61
2024/01/07 08:59:04;;;;;;;7.13;5.70;;;;;;;2.88;100.00;100155.59;5031082;28;20182;-61
2024/01/07 09:01:29;;;;;;;7.10;5.23;;;;;;;2.97;100.00;100161.38;5043864;28;20220;-62
2024/01/07 09:03:54;;;;;;;7.37;5.80;;;;;;;2.92;100.00;100156.38;5039914;28;20552;-61
2024/01/07 09:06:20;;;;;;;8.43;6.10;;;;;;;2.92;100.00;100171.63;5031237;28;20209;-61
2024/01/07 09:08:45;;;;;;;6.90;5.37;;;;;;;2.81;100.00;100171.03;5017733;28;20667;-62
2024/01/07 09:11:12;;;;;;;7.73;6.03;;;;;;;2.88;100.00;100172.56;5022853;28;20243;-61
2024/01/07 09:13:37;;;;;;;8.57;6.00;;;;;;;2.96;100.00;100174.94;5040678;28;20196;-61
2024/01/07 09:16:03;;;;;;;8.00;6.17;;;;;;;2.89;100.00;100172.53;5030131;28;20182;-61
2024/01/07 09:18:28;;;;;;;7.33;5.70;;;;;;;2.86;100.00;100181.91;5029866;28;20190;-62
2024/01/07 09:20:53;;;;;;;7.93;6.07;;;;;;;2.95;100.00;100183.44;5034675;28;20224;-62
2024/01/07 09:23:18;;;;;;;7.77;6.27;;;;;;;2.84;100.00;100186.19;5038653;28;20182;-62
2024/01/07 09:25:46;;;;;;;10.17;5.60;;;;;;;2.88;100.00;100196.25;5029674;28;20202;-63
2024/01/07 09:28:11;;;;;;;6.83;4.97;;;;;;;2.90;100.00;100198.75;5049573;28;20178;-62
2024/01/07 09:30:36;;;;;;;7.03;6.10;;;;;;;3.01;100.00;100196.00;5030223;28;20755;-62
2024/01/07 09:33:02;;;;;;;5.90;5.10;;;;;;;2.99;100.00;100205.34;5042850;28;20183;-62
2024/01/07 09:35:27;;;;;;;6.30;5.00;;;;;;;2.99;100.00;100212.97;5028042;28;20182;-61
2024/01/07 09:37:52;;;;;;;6.40;4.73;;;;;;;3.01;100.00;100216.34;5031032;28;20622;-62
2024/01/07 09:40:19;;;;;;;7.57;5.70;;;;;;;2.99;100.00;100220.59;5024953;28;20200;-62
2024/01/07 09:42:45;;;;;;;8.73;5.90;;;;;;;3.03;100.00;100220.50;5057377;28;20281;-62
2024/01/07 09:45:13;;;;;;;7.60;5.67;;;;;;;3.09;100.00;100226.31;5030831;28;20232;-62
2024/01/07 09:47:40;;;;;;;7.07;5.60;;;;;;;3.06;100.00;100223.00;5031006;28;20182;-62
2024/01/07 09:50:06;;;;;;;8.70;6.53;;;;;;;3.07;100.00;100228.91;5057574;28;20197;-62
2024/01/07 09:52:33;;;;;;;8.30;6.10;;;;;;;3.05;100.00;100235.72;5061001;28;20178;-61
2024/01/07 09:55:02;;;;;;;8.80;6.10;;;;;;;2.87;100.00;100237.78;5029266;28;20186;-62
2024/01/07 09:57:28;;;;;;;7.70;5.97;;;;;;;2.80;100.00;100238.75;5030998;28;20174;-61
2024/01/07 09:59:53;;;;;;;7.43;5.73;;;;;;;2.81;100.00;100237.06;5030976;28;20252;-63
2024/01/07 10:02:20;;;;;;;7.73;5.50;;;;;;;2.81;100.00;100245.53;5036504;28;20229;-61
2024/01/07 10:04:47;;;;;;;8.07;5.97;;;;;;;2.79;100.00;100251.50;5030701;28;20232;-62
2024/01/07 10:07:12;;;;;;;9.00;6.83;;;;;;;2.82;100.00;100247.19;5030255;28;20209;-62
2024/01/07 10:09:42;;;;;;;10.03;6.60;;;;;;;2.84;100.00;100254.78;5030611;28;20178;-62
2024/01/07 10:12:07;;;;;;;6.43;5.73;;;;;;;2.79;100.00;100248.97;5055084;28;20228;-62
2024/01/07 10:14:33;;;;;;;8.80;6.13;;;;;;;2.80;100.00;100253.19;5060077;28;20528;-62
2024/01/07 10:16:59;;;;;;;8.23;5.70;;;;;;;2.79;100.00;100254.91;5025590;28;20695;-61
2024/01/07 10:19:24;;;;;;;6.73;6.03;;;;;;;2.77;100.00;100255.78;5034081;28;20209;-63
2024/01/07 10:22:05;;;;;;;8.83;6.57;;;;;;;2.55;100.00;100251.13;5052104;28;20710;-62
2024/01/07 10:24:38;;;;;;;8.83;6.50;;;;;;;2.48;100.00;100260.56;5022506;28;20709;-61
2024/01/07 10:27:04;;;;;;;9.13;6.47;;;;;;;2.54;100.00;100257.91;5065499;28;20205;-60
2024/01/07 10:29:30;;;;;;;6.07;5.37;;;;;;;2.44;100.00;100264.00;5065949;28;20181;-62
2024/01/07 10:31:57;;;;;;;8.13;6.13;;;;;;;2.36;100.00;100269.22;5040503;28;20705;-62
2024/01/07 10:34:23;;;;;;;7.10;5.53;;;;;;;2.33;100.00;100261.69;5035199;28;20617;-62
2024/01/07 10:36:51;;;;;;;9.63;5.70;;;;;;;2.41;100.00;100262.38;5032963;28;20186;-62
2024/01/07 10:39:17;;;;;;;8.40;6.13;;;;;;;2.36;100.00;100265.88;5014353;28;20195;-61
2024/01/07 10:41:43;;;;;;;7.10;5.23;;;;;;;2.30;100.00;100268.50;5048385;28;20225;-61
2024/01/07 10:44:08;;;;;;;7.83;6.07;;;;;;;2.28;100.00;100272.78;5038675;28;20581;-62
2024/01/07 10:46:34;;;;;;;6.50;5.13;;;;;;;2.31;100.00;100265.09;5065263;28;20222;-61
2024/01/07 10:49:03;;;;;;;6.50;5.60;;;;;;;2.32;100.00;100275.25;5036625;28;20330;-61
2024/01/07 10:51:28;;;;;;;6.43;5.17;;;;;;;2.41;100.00;100269.97;5033647;28;20624;-62
2024/01/07 10:53:55;;;;;;;6.60;5.37;;;;;;;2.41;100.00;100267.44;5036646;28;20189;-61
2024/01/07 10:56:28;;;;;;;6.97;5.20;;;;;;;2.39;100.00;100263.25;5065472;28;20182;-61
2024/01/07 10:58:54;;;;;;;6.43;5.70;;;;;;;2.41;100.00;100269.16;5065192;28;20205;-64
2024/01/07 11:01:20;;;;;;;8.90;5.97;;;;;;;2.44;100.00;100268.25;5035425;28;20259;-61
2024/01/07 11:04:20;;;;;;;6.53;5.60;;;;;;;2.41;100.00;100267.44;5037301;28;20666;-62
2024/01/07 11:07:00;;;;;;;5.97;5.03;;;;;;;2.22;100.00;100271.16;5033080;28;20217;-62
2024/01/07 11:09:55;;;;;;;6.47;4.87;;;;;;;2.22;100.00;100278.78;5022676;28;20268;-61
2024/01/07 11:12:21;;;;;;;6.03;5.43;;;;;;;2.21;100.00;100275.41;5038205;28;20699;-60
2024/01/07 11:14:52;;;;;;;9.03;5.47;;;;;;;2.24;100.00;100284.69;5033069;28;20178;-60
2024/01/07 11:17:37;;;;;;;7.20;5.93;;;;;;;2.20;100.00;100281.34;5032005;28;20192;-61
2024/01/07 11:20:05;;;;;;;6.00;5.30;;;;;;;2.13;100.00;100281.50;5015250;28;20182;-63
2024/01/07 11:22:30;;;;;;;6.93;5.43;;;;;;;2.25;100.00;100281.28;5063220;28;20294;-63